»·PEaware :: N427LJ KPDX-KOLM

N427LJ :: KPDX-KOLM

FLIGHT INFORMATION

Flight Status: Arrived
Operator: Privately registered:
United States
More flights under this callsign
Pilot: Anonymous 27948 (27948)
Aircraft: CESSNA 172 SKYHAWK
(C172)
More flights by this aircraft type
Origin: KPDX Portland Intl
United States
Destination: KOLM Olympia
United States
More flights between these airports :: More routes between these airports
Route: +PTLD1 BTG OLM
File this flight plan on PilotEdge
Remarks:
Altitude:
(Current/Filed)
8,000ft
Speed:
(Current/Filed)
120kts
Departed: 17-Oct-20 01:43 PM
Arrived: 17-Oct-20 02:36 PM
Distance/Time
Traveled:
84nm/0:53
Distance/Time
To Go:
Arrived

Flight Plot

Page will automatically refresh every two minutes.

Flight plan parsing failed; only flown route is shown


Map Options




Map Legend


Flown Route
Filed Route
Departure Airport
Arrival Airport
Navaid (VOR, NDB)
Fix

Horizontal Profiles

Position Reports

Time Latitude Longitude Heading Altitude Ground
Speed
17-Oct-20 13:16 45.585469 -122.580974 28 20ft 0kts
17-Oct-20 13:17 45.585469 -122.580974 28 20ft 0kts
17-Oct-20 13:18 45.585469 -122.580974 28 20ft 0kts
17-Oct-20 13:19 45.585469 -122.580974 28 20ft 0kts
17-Oct-20 13:20 45.588401 -122.585082 297 20ft 0kts
17-Oct-20 13:21 45.588401 -122.585082 297 20ft 0kts
17-Oct-20 13:22 45.588401 -122.585082 297 20ft 0kts
17-Oct-20 13:23 45.588401 -122.585082 297 20ft 0kts
17-Oct-20 13:24 45.588401 -122.585082 297 20ft 0kts
17-Oct-20 13:25 45.588401 -122.585082 297 20ft 0kts
17-Oct-20 13:26 45.588401 -122.585082 297 20ft 0kts
17-Oct-20 13:27 45.588401 -122.585082 297 20ft 0kts
17-Oct-20 13:28 45.588401 -122.585082 297 20ft 0kts
17-Oct-20 13:29 45.588401 -122.585082 297 20ft 0kts
17-Oct-20 13:30 45.588401 -122.585082 297 20ft 0kts
17-Oct-20 13:31 45.588401 -122.585082 297 20ft 0kts
17-Oct-20 13:32 45.588401 -122.585082 297 20ft 0kts
17-Oct-20 13:33 45.588401 -122.585082 297 20ft 0kts
17-Oct-20 13:34 45.588401 -122.585082 297 20ft 0kts
17-Oct-20 13:35 45.588566 -122.585391 322 20ft 1kts
17-Oct-20 13:36 45.590170 -122.586999 299 20ft 13kts
17-Oct-20 13:37 45.592515 -122.593001 297 20ft 17kts
17-Oct-20 13:38 45.594274 -122.597469 341 23ft 6kts
17-Oct-20 13:39 45.594362 -122.597480 24 23ft 0kts
17-Oct-20 13:40 45.594362 -122.597480 24 23ft 0kts
17-Oct-20 13:41 45.594444 -122.597431 22 23ft 5kts
17-Oct-20 13:42 45.590057 -122.584465 123 280ft 80kts
17-Oct-20 13:43 45.581909 -122.556502 108 1385ft 76kts
17-Oct-20 13:44 45.576425 -122.527170 103 2394ft 76kts
17-Oct-20 13:45 45.586900 -122.506534 24 3324ft 75kts
17-Oct-20 13:46 45.605568 -122.494226 24 4194ft 73kts
17-Oct-20 13:47 45.624306 -122.484804 337 5001ft 73kts
17-Oct-20 13:48 45.641942 -122.499984 328 5708ft 80kts
17-Oct-20 13:49 45.661402 -122.516882 328 6420ft 82kts
17-Oct-20 13:51 45.680913 -122.533800 328 7112ft 82kts
17-Oct-20 13:52 45.700416 -122.550716 328 7708ft 89kts
17-Oct-20 13:53 45.726930 -122.573576 328 7716ft 120kts
17-Oct-20 13:54 45.757510 -122.592998 347 7716ft 122kts
17-Oct-20 13:55 45.790927 -122.602043 349 7716ft 122kts
17-Oct-20 13:56 45.824373 -122.610528 349 7716ft 122kts
17-Oct-20 13:57 45.857810 -122.618885 349 7716ft 122kts
17-Oct-20 13:58 45.891205 -122.627211 349 7716ft 122kts
17-Oct-20 13:59 45.924703 -122.635565 349 7716ft 122kts
17-Oct-20 14:00 45.958150 -122.643914 349 7716ft 122kts
17-Oct-20 14:01 45.991660 -122.652289 349 7716ft 122kts
17-Oct-20 14:02 46.025125 -122.660663 349 7716ft 122kts
17-Oct-20 14:03 46.058628 -122.669057 349 7716ft 122kts
17-Oct-20 14:04 46.092123 -122.677459 349 7716ft 122kts
17-Oct-20 14:04 46.120045 -122.684473 349 7716ft 122kts
17-Oct-20 14:06 46.159085 -122.694290 349 7716ft 122kts
17-Oct-20 14:06 46.186976 -122.701312 349 7716ft 122kts
17-Oct-20 14:08 46.225989 -122.711146 349 7716ft 122kts
17-Oct-20 14:08 46.253920 -122.718195 349 7716ft 122kts
17-Oct-20 14:10 46.292975 -122.728064 349 7716ft 122kts
17-Oct-20 14:10 46.320898 -122.735128 349 7716ft 122kts
17-Oct-20 14:11 46.354370 -122.743607 349 7716ft 122kts
17-Oct-20 14:12 46.387922 -122.752116 349 7716ft 122kts
17-Oct-20 14:13 46.421331 -122.760599 349 7716ft 122kts
17-Oct-20 14:14 46.454858 -122.769123 349 7716ft 122kts
17-Oct-20 14:15 46.488313 -122.777638 349 7716ft 122kts
17-Oct-20 14:16 46.521603 -122.786105 349 7716ft 122kts
17-Oct-20 14:17 46.554997 -122.794625 349 7716ft 122kts
17-Oct-20 14:18 46.588573 -122.803204 349 7716ft 122kts
17-Oct-20 14:19 46.622069 -122.811774 349 7716ft 122kts
17-Oct-20 14:20 46.655612 -122.820366 349 7716ft 122kts
17-Oct-20 14:21 46.689082 -122.828950 349 7716ft 122kts
17-Oct-20 14:22 46.722591 -122.837556 349 7716ft 122kts
17-Oct-20 14:23 46.756045 -122.846158 349 7716ft 122kts
17-Oct-20 14:24 46.786218 -122.853875 349 7130ft 101kts
17-Oct-20 14:25 46.813644 -122.860926 349 6063ft 89kts
17-Oct-20 14:26 46.836934 -122.866941 349 4956ft 84kts
17-Oct-20 14:27 46.859740 -122.872823 349 3857ft 84kts
17-Oct-20 14:28 46.882607 -122.878658 350 2757ft 84kts
17-Oct-20 14:29 46.905479 -122.884486 350 1658ft 84kts
17-Oct-20 14:30 46.927910 -122.883443 6 958ft 71kts
17-Oct-20 14:31 46.947166 -122.879950 6 965ft 77kts
17-Oct-20 14:32 46.969134 -122.875914 6 962ft 79kts
17-Oct-20 14:33 46.991327 -122.873281 331 720ft 74kts
17-Oct-20 14:34 46.990492 -122.899452 240 677ft 68kts
17-Oct-20 14:35 46.973707 -122.903171 190 200ft 25kts
17-Oct-20 14:36 46.967292 -122.904522 112 201ft 18kts
17-Oct-20 14:37 46.967237 -122.903859 92 201ft 0kts
17-Oct-20 14:38 46.967743 -122.900901 10 202ft 12kts
17-Oct-20 14:39 46.971606 -122.897801 46 201ft 23kts
17-Oct-20 14:40 46.975026 -122.898667 3 197ft 13kts

Navigation Log

Ident Type
Flight plan parsing failed, navigation log unavailable